sensor_id;sensor_type;location;lat;lon;timestamp;temperature;humidity
67870;DHT22;54673;52.262;6.830;2023-01-13T00:00:06;15.20;61.50
67870;DHT22;54673;52.262;6.830;2023-01-13T00:02:33;15.20;61.50
67870;DHT22;54673;52.262;6.830;2023-01-13T00:04:59;15.20;61.50
67870;DHT22;54673;52.262;6.830;2023-01-13T00:07:24;15.20;61.40
67870;DHT22;54673;52.262;6.830;2023-01-13T00:09:50;15.20;61.40
67870;DHT22;54673;52.262;6.830;2023-01-13T00:12:16;15.20;61.40
67870;DHT22;54673;52.262;6.830;2023-01-13T00:14:41;15.20;61.40
67870;DHT22;54673;52.262;6.830;2023-01-13T00:17:07;15.20;61.40
67870;DHT22;54673;52.262;6.830;2023-01-13T00:19:32;15.20;61.30
67870;DHT22;54673;52.262;6.830;2023-01-13T00:21:58;15.20;61.40
67870;DHT22;54673;52.262;6.830;2023-01-13T00:24:24;15.20;62.30
67870;DHT22;54673;52.262;6.830;2023-01-13T00:26:49;15.20;61.50
67870;DHT22;54673;52.262;6.830;2023-01-13T00:29:17;15.20;61.40
67870;DHT22;54673;52.262;6.830;2023-01-13T00:31:43;15.20;61.50
67870;DHT22;54673;52.262;6.830;2023-01-13T00:34:08;15.20;61.40
67870;DHT22;54673;52.262;6.830;2023-01-13T00:36:34;15.20;61.40
67870;DHT22;54673;52.262;6.830;2023-01-13T00:38:59;15.20;61.40
67870;DHT22;54673;52.262;6.830;2023-01-13T00:41:26;15.20;61.40
67870;DHT22;54673;52.262;6.830;2023-01-13T00:43:51;15.20;61.30
67870;DHT22;54673;52.262;6.830;2023-01-13T00:46:20;15.20;61.40
67870;DHT22;54673;52.262;6.830;2023-01-13T00:48:46;15.20;61.30
67870;DHT22;54673;52.262;6.830;2023-01-13T00:51:13;15.20;61.40
67870;DHT22;54673;52.262;6.830;2023-01-13T00:53:42;15.20;61.30
67870;DHT22;54673;52.262;6.830;2023-01-13T00:56:20;15.20;61.30
67870;DHT22;54673;52.262;6.830;2023-01-13T00:58:46;15.20;61.30
67870;DHT22;54673;52.262;6.830;2023-01-13T01:01:16;15.20;61.30
67870;DHT22;54673;52.262;6.830;2023-01-13T01:03:45;15.20;61.30
67870;DHT22;54673;52.262;6.830;2023-01-13T01:06:14;15.20;61.20
67870;DHT22;54673;52.262;6.830;2023-01-13T01:08:40;15.20;61.20
67870;DHT22;54673;52.262;6.830;2023-01-13T01:11:08;15.20;61.20
67870;DHT22;54673;52.262;6.830;2023-01-13T01:13:34;15.20;61.20
67870;DHT22;54673;52.262;6.830;2023-01-13T01:16:03;15.20;61.10
67870;DHT22;54673;52.262;6.830;2023-01-13T01:18:32;15.20;61.10
67870;DHT22;54673;52.262;6.830;2023-01-13T01:20:59;15.20;61.10
67870;DHT22;54673;52.262;6.830;2023-01-13T01:23:27;15.20;61.00
67870;DHT22;54673;52.262;6.830;2023-01-13T01:25:53;15.20;61.10
67870;DHT22;54673;52.262;6.830;2023-01-13T01:28:19;15.20;61.00
67870;DHT22;54673;52.262;6.830;2023-01-13T01:30:45;15.10;60.90
67870;DHT22;54673;52.262;6.830;2023-01-13T01:33:10;15.20;60.90
67870;DHT22;54673;52.262;6.830;2023-01-13T01:35:39;15.10;60.90
67870;DHT22;54673;52.262;6.830;2023-01-13T01:38:05;15.10;60.90
67870;DHT22;54673;52.262;6.830;2023-01-13T01:40:31;15.10;61.80
67870;DHT22;54673;52.262;6.830;2023-01-13T01:42:56;15.10;61.00
67870;DHT22;54673;52.262;6.830;2023-01-13T01:45:40;15.10;61.10
67870;DHT22;54673;52.262;6.830;2023-01-13T01:48:07;15.20;61.10
67870;DHT22;54673;52.262;6.830;2023-01-13T01:50:34;15.20;61.30
67870;DHT22;54673;52.262;6.830;2023-01-13T01:53:12;15.20;61.10
67870;DHT22;54673;52.262;6.830;2023-01-13T01:55:39;15.10;61.10
67870;DHT22;54673;52.262;6.830;2023-01-13T01:58:15;15.10;61.10
67870;DHT22;54673;52.262;6.830;2023-01-13T02:00:41;15.10;61.10
67870;DHT22;54673;52.262;6.830;2023-01-13T02:03:08;15.10;61.10
67870;DHT22;54673;52.262;6.830;2023-01-13T02:05:35;15.10;61.20
67870;DHT22;54673;52.262;6.830;2023-01-13T02:08:01;15.10;61.10
67870;DHT22;54673;52.262;6.830;2023-01-13T02:10:28;15.10;61.10
67870;DHT22;54673;52.262;6.830;2023-01-13T02:13:00;15.10;61.10
67870;DHT22;54673;52.262;6.830;2023-01-13T02:24:44;15.10;61.10
67870;DHT22;54673;52.262;6.830;2023-01-13T02:35:49;15.10;61.10
67870;DHT22;54673;52.262;6.830;2023-01-13T02:38:21;15.10;61.10
67870;DHT22;54673;52.262;6.830;2023-01-13T02:40:49;15.10;61.10
67870;DHT22;54673;52.262;6.830;2023-01-13T02:43:27;15.10;61.10
67870;DHT22;54673;52.262;6.830;2023-01-13T02:46:19;15.10;61.10
67870;DHT22;54673;52.262;6.830;2023-01-13T02:48:47;15.10;61.10
67870;DHT22;54673;52.262;6.830;2023-01-13T02:51:17;15.10;61.10
67870;DHT22;54673;52.262;6.830;2023-01-13T02:53:52;15.10;61.10
67870;DHT22;54673;52.262;6.830;2023-01-13T02:56:21;15.10;61.10
67870;DHT22;54673;52.262;6.830;2023-01-13T02:58:48;15.10;61.00
67870;DHT22;54673;52.262;6.830;2023-01-13T03:01:14;15.10;61.10
67870;DHT22;54673;52.262;6.830;2023-01-13T03:03:40;15.10;61.10
67870;DHT22;54673;52.262;6.830;2023-01-13T03:09:36;15.10;61.10
67870;DHT22;54673;52.262;6.830;2023-01-13T03:12:15;15.10;61.10
67870;DHT22;54673;52.262;6.830;2023-01-13T03:14:53;15.10;61.10
67870;DHT22;54673;52.262;6.830;2023-01-13T03:17:39;15.10;61.10
67870;DHT22;54673;52.262;6.830;2023-01-13T03:23:06;15.10;61.10
67870;DHT22;54673;52.262;6.830;2023-01-13T03:28:39;15.00;61.10
67870;DHT22;54673;52.262;6.830;2023-01-13T03:31:13;15.00;61.10
67870;DHT22;54673;52.262;6.830;2023-01-13T03:33:45;15.00;61.10
67870;DHT22;54673;52.262;6.830;2023-01-13T03:36:15;15.10;61.20
67870;DHT22;54673;52.262;6.830;2023-01-13T03:38:45;15.00;61.20
67870;DHT22;54673;52.262;6.830;2023-01-13T03:41:32;15.00;61.20
67870;DHT22;54673;52.262;6.830;2023-01-13T03:44:52;15.10;61.30
67870;DHT22;54673;52.262;6.830;2023-01-13T03:47:06;15.00;62.10
67870;DHT22;54673;52.262;6.830;2023-01-13T03:49:58;15.10;61.20
67870;DHT22;54673;52.262;6.830;2023-01-13T03:52:30;15.00;61.10
67870;DHT22;54673;52.262;6.830;2023-01-13T03:55:06;15.30;61.30
67870;DHT22;54673;52.262;6.830;2023-01-13T03:57:36;15.10;61.20
67870;DHT22;54673;52.262;6.830;2023-01-13T04:00:04;15.00;61.20
67870;DHT22;54673;52.262;6.830;2023-01-13T04:02:42;15.00;61.20
67870;DHT22;54673;52.262;6.830;2023-01-13T04:05:09;15.00;61.10
67870;DHT22;54673;52.262;6.830;2023-01-13T04:10:43;15.00;61.20
67870;DHT22;54673;52.262;6.830;2023-01-13T04:13:13;15.00;61.20
67870;DHT22;54673;52.262;6.830;2023-01-13T04:15:44;15.00;61.20
67870;DHT22;54673;52.262;6.830;2023-01-13T04:18:17;15.00;61.20
67870;DHT22;54673;52.262;6.830;2023-01-13T04:20:44;15.00;61.20
67870;DHT22;54673;52.262;6.830;2023-01-13T04:23:11;15.00;61.20
67870;DHT22;54673;52.262;6.830;2023-01-13T04:25:38;15.00;61.20
67870;DHT22;54673;52.262;6.830;2023-01-13T04:28:04;15.00;61.20
67870;DHT22;54673;52.262;6.830;2023-01-13T04:30:30;15.00;61.20
67870;DHT22;54673;52.262;6.830;2023-01-13T04:32:55;15.00;61.20
67870;DHT22;54673;52.262;6.830;2023-01-13T04:35:21;15.00;61.20
67870;DHT22;54673;52.262;6.830;2023-01-13T04:37:47;15.00;61.20
67870;DHT22;54673;52.262;6.830;2023-01-13T04:40:12;15.00;61.20
67870;DHT22;54673;52.262;6.830;2023-01-13T04:42:38;15.00;62.10
67870;DHT22;54673;52.262;6.830;2023-01-13T04:45:04;15.00;61.30
67870;DHT22;54673;52.262;6.830;2023-01-13T04:47:29;15.00;61.20
67870;DHT22;54673;52.262;6.830;2023-01-13T04:49:55;15.00;61.20
67870;DHT22;54673;52.262;6.830;2023-01-13T04:52:21;15.10;62.10
67870;DHT22;54673;52.262;6.830;2023-01-13T04:54:46;15.00;61.10
67870;DHT22;54673;52.262;6.830;2023-01-13T04:57:12;15.00;61.20
67870;DHT22;54673;52.262;6.830;2023-01-13T04:59:37;15.00;61.20
67870;DHT22;54673;52.262;6.830;2023-01-13T05:02:03;15.00;61.20
67870;DHT22;54673;52.262;6.830;2023-01-13T05:04:28;15.00;61.20
67870;DHT22;54673;52.262;6.830;2023-01-13T05:06:54;15.00;61.20
67870;DHT22;54673;52.262;6.830;2023-01-13T05:09:19;15.00;61.20
67870;DHT22;54673;52.262;6.830;2023-01-13T05:11:45;15.00;61.20
67870;DHT22;54673;52.262;6.830;2023-01-13T05:14:29;15.00;61.30
67870;DHT22;54673;52.262;6.830;2023-01-13T05:17:20;15.00;61.20
67870;DHT22;54673;52.262;6.830;2023-01-13T05:19:46;15.00;61.20
67870;DHT22;54673;52.262;6.830;2023-01-13T05:22:12;15.00;61.20
67870;DHT22;54673;52.262;6.830;2023-01-13T05:24:57;15.00;61.10
67870;DHT22;54673;52.262;6.830;2023-01-13T05:27:41;15.00;61.10
67870;DHT22;54673;52.262;6.830;2023-01-13T05:30:07;15.00;61.10
67870;DHT22;54673;52.262;6.830;2023-01-13T05:32:33;15.00;61.10
67870;DHT22;54673;52.262;6.830;2023-01-13T05:34:59;15.00;61.10
67870;DHT22;54673;52.262;6.830;2023-01-13T05:37:25;15.00;61.00
67870;DHT22;54673;52.262;6.830;2023-01-13T05:39:52;15.00;61.00
67870;DHT22;54673;52.262;6.830;2023-01-13T05:42:37;15.00;61.00
67870;DHT22;54673;52.262;6.830;2023-01-13T05:45:21;15.00;61.00
67870;DHT22;54673;52.262;6.830;2023-01-13T05:47:46;15.00;60.90
67870;DHT22;54673;52.262;6.830;2023-01-13T05:50:12;15.00;60.90
67870;DHT22;54673;52.262;6.830;2023-01-13T05:52:38;14.90;60.80
67870;DHT22;54673;52.262;6.830;2023-01-13T05:55:03;15.00;60.80
67870;DHT22;54673;52.262;6.830;2023-01-13T05:57:29;15.00;60.80
67870;DHT22;54673;52.262;6.830;2023-01-13T05:59:55;15.00;60.80
67870;DHT22;54673;52.262;6.830;2023-01-13T06:02:20;15.00;60.80
67870;DHT22;54673;52.262;6.830;2023-01-13T06:04:46;14.90;60.70
67870;DHT22;54673;52.262;6.830;2023-01-13T06:07:11;14.90;60.60
67870;DHT22;54673;52.262;6.830;2023-01-13T06:09:37;14.90;60.60
67870;DHT22;54673;52.262;6.830;2023-01-13T06:12:02;14.90;60.60
67870;DHT22;54673;52.262;6.830;2023-01-13T06:14:28;15.00;60.60
67870;DHT22;54673;52.262;6.830;2023-01-13T06:17:06;14.90;60.50
67870;DHT22;54673;52.262;6.830;2023-01-13T06:19:32;14.90;60.50
67870;DHT22;54673;52.262;6.830;2023-01-13T06:21:58;14.90;60.50
67870;DHT22;54673;52.262;6.830;2023-01-13T06:24:24;14.90;60.50
67870;DHT22;54673;52.262;6.830;2023-01-13T06:26:49;14.90;60.50
67870;DHT22;54673;52.262;6.830;2023-01-13T06:29:15;14.90;60.40
67870;DHT22;54673;52.262;6.830;2023-01-13T06:31:42;14.90;60.50
67870;DHT22;54673;52.262;6.830;2023-01-13T06:34:09;14.90;60.40
67870;DHT22;54673;52.262;6.830;2023-01-13T06:36:40;14.90;60.40
67870;DHT22;54673;52.262;6.830;2023-01-13T06:39:07;14.90;60.40
67870;DHT22;54673;52.262;6.830;2023-01-13T06:41:34;14.90;60.40
67870;DHT22;54673;52.262;6.830;2023-01-13T06:44:19;14.90;60.50
67870;DHT22;54673;52.262;6.830;2023-01-13T06:46:45;14.90;60.50
67870;DHT22;54673;52.262;6.830;2023-01-13T06:49:11;14.90;60.50
67870;DHT22;54673;52.262;6.830;2023-01-13T06:51:37;14.90;60.40
67870;DHT22;54673;52.262;6.830;2023-01-13T06:54:03;14.90;60.40
67870;DHT22;54673;52.262;6.830;2023-01-13T06:56:28;14.90;60.40
67870;DHT22;54673;52.262;6.830;2023-01-13T06:58:54;14.90;60.30
67870;DHT22;54673;52.262;6.830;2023-01-13T07:01:20;14.90;60.40
67870;DHT22;54673;52.262;6.830;2023-01-13T07:03:45;14.90;60.50
67870;DHT22;54673;52.262;6.830;2023-01-13T07:06:11;14.90;60.50
67870;DHT22;54673;52.262;6.830;2023-01-13T07:08:36;14.90;60.40
67870;DHT22;54673;52.262;6.830;2023-01-13T07:11:02;14.90;60.40
67870;DHT22;54673;52.262;6.830;2023-01-13T07:13:27;14.90;60.40
67870;DHT22;54673;52.262;6.830;2023-01-13T07:16:12;14.90;60.30
67870;DHT22;54673;52.262;6.830;2023-01-13T07:18:37;14.90;60.30
67870;DHT22;54673;52.262;6.830;2023-01-13T07:21:05;14.90;60.20
67870;DHT22;54673;52.262;6.830;2023-01-13T07:23:37;14.90;60.20
67870;DHT22;54673;52.262;6.830;2023-01-13T07:26:04;14.90;60.30
67870;DHT22;54673;52.262;6.830;2023-01-13T07:28:30;14.90;60.20
67870;DHT22;54673;52.262;6.830;2023-01-13T07:30:57;14.90;60.10
67870;DHT22;54673;52.262;6.830;2023-01-13T07:33:23;14.90;60.10
67870;DHT22;54673;52.262;6.830;2023-01-13T07:35:58;14.80;60.10
67870;DHT22;54673;52.262;6.830;2023-01-13T07:38:24;14.90;60.10
67870;DHT22;54673;52.262;6.830;2023-01-13T07:40:50;14.90;60.00
67870;DHT22;54673;52.262;6.830;2023-01-13T07:43:16;14.90;60.10
67870;DHT22;54673;52.262;6.830;2023-01-13T07:46:01;14.90;60.10
67870;DHT22;54673;52.262;6.830;2023-01-13T07:48:29;14.90;60.10
67870;DHT22;54673;52.262;6.830;2023-01-13T07:50:55;14.90;60.10
67870;DHT22;54673;52.262;6.830;2023-01-13T07:53:22;14.80;60.10
67870;DHT22;54673;52.262;6.830;2023-01-13T07:55:49;14.80;60.00
67870;DHT22;54673;52.262;6.830;2023-01-13T07:58:15;14.80;60.00
67870;DHT22;54673;52.262;6.830;2023-01-13T08:00:40;15.40;60.40
67870;DHT22;54673;52.262;6.830;2023-01-13T08:03:06;14.80;60.00
67870;DHT22;54673;52.262;6.830;2023-01-13T08:05:34;14.80;60.20
67870;DHT22;54673;52.262;6.830;2023-01-13T08:08:00;14.80;60.10
67870;DHT22;54673;52.262;6.830;2023-01-13T08:10:25;14.80;60.10
67870;DHT22;54673;52.262;6.830;2023-01-13T08:12:51;14.80;60.10
67870;DHT22;54673;52.262;6.830;2023-01-13T08:15:35;14.80;60.10
67870;DHT22;54673;52.262;6.830;2023-01-13T08:18:01;14.80;60.00
67870;DHT22;54673;52.262;6.830;2023-01-13T08:20:26;14.80;60.10
67870;DHT22;54673;52.262;6.830;2023-01-13T08:22:56;14.80;60.00
67870;DHT22;54673;52.262;6.830;2023-01-13T08:25:23;14.80;60.00
67870;DHT22;54673;52.262;6.830;2023-01-13T08:27:48;15.00;60.00
67870;DHT22;54673;52.262;6.830;2023-01-13T08:30:15;14.80;59.90
67870;DHT22;54673;52.262;6.830;2023-01-13T08:32:44;14.80;59.90
67870;DHT22;54673;52.262;6.830;2023-01-13T08:35:10;14.80;59.90
67870;DHT22;54673;52.262;6.830;2023-01-13T08:37:36;14.90;59.90
67870;DHT22;54673;52.262;6.830;2023-01-13T08:40:02;14.80;59.90
67870;DHT22;54673;52.262;6.830;2023-01-13T08:42:27;14.80;59.90
67870;DHT22;54673;52.262;6.830;2023-01-13T08:44:53;14.80;60.70
67870;DHT22;54673;52.262;6.830;2023-01-13T08:47:19;14.80;59.80
67870;DHT22;54673;52.262;6.830;2023-01-13T08:49:45;14.80;60.00
67870;DHT22;54673;52.262;6.830;2023-01-13T08:52:11;14.80;59.90
67870;DHT22;54673;52.262;6.830;2023-01-13T08:54:38;14.80;59.80
67870;DHT22;54673;52.262;6.830;2023-01-13T08:57:04;15.10;60.00
67870;DHT22;54673;52.262;6.830;2023-01-13T08:59:29;14.20;59.60
67870;DHT22;54673;52.262;6.830;2023-01-13T09:01:55;14.80;60.00
67870;DHT22;54673;52.262;6.830;2023-01-13T09:04:22;14.80;60.00
67870;DHT22;54673;52.262;6.830;2023-01-13T09:06:49;14.80;60.00
67870;DHT22;54673;52.262;6.830;2023-01-13T09:09:15;14.80;60.10
67870;DHT22;54673;52.262;6.830;2023-01-13T09:11:43;14.90;60.00
67870;DHT22;54673;52.262;6.830;2023-01-13T09:14:31;14.80;60.00
67870;DHT22;54673;52.262;6.830;2023-01-13T09:16:57;14.90;60.00
67870;DHT22;54673;52.262;6.830;2023-01-13T09:19:23;14.90;60.00
67870;DHT22;54673;52.262;6.830;2023-01-13T09:21:49;14.90;60.00
67870;DHT22;54673;52.262;6.830;2023-01-13T09:24:17;14.90;60.00
67870;DHT22;54673;52.262;6.830;2023-01-13T09:26:43;14.90;60.00
67870;DHT22;54673;52.262;6.830;2023-01-13T09:29:08;14.90;60.00
67870;DHT22;54673;52.262;6.830;2023-01-13T09:31:34;14.90;60.00
67870;DHT22;54673;52.262;6.830;2023-01-13T09:34:03;14.90;59.90
67870;DHT22;54673;52.262;6.830;2023-01-13T09:36:48;14.80;59.80
67870;DHT22;54673;52.262;6.830;2023-01-13T09:39:14;14.90;60.00
67870;DHT22;54673;52.262;6.830;2023-01-13T09:41:45;14.80;59.90
67870;DHT22;54673;52.262;6.830;2023-01-13T09:47:11;14.90;59.80
67870;DHT22;54673;52.262;6.830;2023-01-13T09:49:40;14.90;59.80
67870;DHT22;54673;52.262;6.830;2023-01-13T09:52:15;14.90;59.70
67870;DHT22;54673;52.262;6.830;2023-01-13T09:57:37;14.90;59.70
67870;DHT22;54673;52.262;6.830;2023-01-13T10:00:28;14.90;59.70
67870;DHT22;54673;52.262;6.830;2023-01-13T10:06:03;14.90;59.60
67870;DHT22;54673;52.262;6.830;2023-01-13T10:08:33;14.90;59.60
67870;DHT22;54673;52.262;6.830;2023-01-13T10:11:01;14.90;59.60
67870;DHT22;54673;52.262;6.830;2023-01-13T10:13:51;14.90;59.60
67870;DHT22;54673;52.262;6.830;2023-01-13T10:16:30;14.90;59.50
67870;DHT22;54673;52.262;6.830;2023-01-13T10:19:10;14.90;59.40
67870;DHT22;54673;52.262;6.830;2023-01-13T10:27:16;14.90;59.20
67870;DHT22;54673;52.262;6.830;2023-01-13T10:29:43;14.90;59.20
67870;DHT22;54673;52.262;6.830;2023-01-13T10:32:08;14.90;59.10
67870;DHT22;54673;52.262;6.830;2023-01-13T10:34:50;14.90;59.20
67870;DHT22;54673;52.262;6.830;2023-01-13T10:37:24;14.90;59.20
67870;DHT22;54673;52.262;6.830;2023-01-13T10:39:54;15.80;59.60
67870;DHT22;54673;52.262;6.830;2023-01-13T10:42:21;14.90;59.20
67870;DHT22;54673;52.262;6.830;2023-01-13T10:44:53;14.90;59.10
67870;DHT22;54673;52.262;6.830;2023-01-13T10:47:34;14.90;59.10
67870;DHT22;54673;52.262;6.830;2023-01-13T10:52:28;14.90;59.20
67870;DHT22;54673;52.262;6.830;2023-01-13T10:54:54;14.90;59.10
67870;DHT22;54673;52.262;6.830;2023-01-13T10:57:25;14.90;59.10
67870;DHT22;54673;52.262;6.830;2023-01-13T10:59:54;14.90;59.20
67870;DHT22;54673;52.262;6.830;2023-01-13T11:02:33;14.70;59.50
67870;DHT22;54673;52.262;6.830;2023-01-13T11:05:23;14.90;59.70
67870;DHT22;54673;52.262;6.830;2023-01-13T11:07:50;13.80;59.30
67870;DHT22;54673;52.262;6.830;2023-01-13T11:10:26;15.00;60.00
67870;DHT22;54673;52.262;6.830;2023-01-13T11:18:15;15.20;60.20
67870;DHT22;54673;52.262;6.830;2023-01-13T11:20:45;15.20;60.20
67870;DHT22;54673;52.262;6.830;2023-01-13T11:23:30;15.30;60.40
67870;DHT22;54673;52.262;6.830;2023-01-13T11:26:15;15.40;60.30
67870;DHT22;54673;52.262;6.830;2023-01-13T11:31:26;15.50;60.10
67870;DHT22;54673;52.262;6.830;2023-01-13T11:34:02;15.60;60.00
67870;DHT22;54673;52.262;6.830;2023-01-13T11:36:42;15.60;59.80
67870;DHT22;54673;52.262;6.830;2023-01-13T11:39:43;15.30;59.30
67870;DHT22;54673;52.262;6.830;2023-01-13T11:42:24;15.70;59.20
67870;DHT22;54673;52.262;6.830;2023-01-13T11:47:35;15.70;59.70
67870;DHT22;54673;52.262;6.830;2023-01-13T11:50:01;15.80;59.80
67870;DHT22;54673;52.262;6.830;2023-01-13T11:53:06;15.90;59.70
67870;DHT22;54673;52.262;6.830;2023-01-13T11:58:24;16.00;59.50
67870;DHT22;54673;52.262;6.830;2023-01-13T12:03:57;16.10;59.30
67870;DHT22;54673;52.262;6.830;2023-01-13T12:06:33;16.20;59.30
67870;DHT22;54673;52.262;6.830;2023-01-13T12:15:01;16.30;58.90
67870;DHT22;54673;52.262;6.830;2023-01-13T12:21:08;16.50;58.50
67870;DHT22;54673;52.262;6.830;2023-01-13T12:23:44;16.50;58.10
67870;DHT22;54673;52.262;6.830;2023-01-13T12:26:12;16.50;57.90
67870;DHT22;54673;52.262;6.830;2023-01-13T12:28:55;16.50;57.70
67870;DHT22;54673;52.262;6.830;2023-01-13T12:31:22;16.40;57.50
67870;DHT22;54673;52.262;6.830;2023-01-13T12:39:40;16.40;57.00
67870;DHT22;54673;52.262;6.830;2023-01-13T12:42:14;16.30;56.90
67870;DHT22;54673;52.262;6.830;2023-01-13T12:47:38;16.30;56.90
67870;DHT22;54673;52.262;6.830;2023-01-13T12:52:57;16.20;57.80
67870;DHT22;54673;52.262;6.830;2023-01-13T12:55:33;16.20;56.90
67870;DHT22;54673;52.262;6.830;2023-01-13T13:08:28;16.10;56.80
67870;DHT22;54673;52.262;6.830;2023-01-13T13:14:10;16.00;56.80
67870;DHT22;54673;52.262;6.830;2023-01-13T13:16:48;16.00;56.90
67870;DHT22;54673;52.262;6.830;2023-01-13T13:27:27;15.90;57.00
67870;DHT22;54673;52.262;6.830;2023-01-13T13:30:01;15.30;56.70
67870;DHT22;54673;52.262;6.830;2023-01-13T13:32:51;15.90;57.10
67870;DHT22;54673;52.262;6.830;2023-01-13T13:41:09;15.80;57.10
67870;DHT22;54673;52.262;6.830;2023-01-13T13:43:59;15.80;57.20
67870;DHT22;54673;52.262;6.830;2023-01-13T13:46:46;15.70;57.20
67870;DHT22;54673;52.262;6.830;2023-01-13T13:49:14;15.70;57.30
67870;DHT22;54673;52.262;6.830;2023-01-13T13:51:57;15.70;57.30
67870;DHT22;54673;52.262;6.830;2023-01-13T13:54:24;15.70;57.30
67870;DHT22;54673;52.262;6.830;2023-01-13T13:56:51;15.70;57.40
67870;DHT22;54673;52.262;6.830;2023-01-13T13:59:20;15.60;57.40
67870;DHT22;54673;52.262;6.830;2023-01-13T14:01:51;15.60;57.40
67870;DHT22;54673;52.262;6.830;2023-01-13T14:04:24;15.70;57.50
67870;DHT22;54673;52.262;6.830;2023-01-13T14:06:53;15.40;57.30
67870;DHT22;54673;52.262;6.830;2023-01-13T14:09:21;15.60;57.50
67870;DHT22;54673;52.262;6.830;2023-01-13T14:12:02;15.60;57.50
67870;DHT22;54673;52.262;6.830;2023-01-13T14:14:28;15.60;57.60
67870;DHT22;54673;52.262;6.830;2023-01-13T14:16:54;15.50;57.60
67870;DHT22;54673;52.262;6.830;2023-01-13T14:19:34;15.50;57.70
67870;DHT22;54673;52.262;6.830;2023-01-13T14:22:01;15.60;57.70
67870;DHT22;54673;52.262;6.830;2023-01-13T14:24:29;15.50;57.60
67870;DHT22;54673;52.262;6.830;2023-01-13T14:27:09;15.50;57.60
67870;DHT22;54673;52.262;6.830;2023-01-13T14:29:38;15.50;57.60
67870;DHT22;54673;52.262;6.830;2023-01-13T14:32:04;15.50;57.70
67870;DHT22;54673;52.262;6.830;2023-01-13T14:34:32;15.50;57.70
67870;DHT22;54673;52.262;6.830;2023-01-13T14:36:59;15.50;57.70
67870;DHT22;54673;52.262;6.830;2023-01-13T14:41:57;15.50;57.80
67870;DHT22;54673;52.262;6.830;2023-01-13T14:44:34;15.40;57.70
67870;DHT22;54673;52.262;6.830;2023-01-13T14:47:17;15.40;57.70
67870;DHT22;54673;52.262;6.830;2023-01-13T14:52:47;15.40;57.80
67870;DHT22;54673;52.262;6.830;2023-01-13T14:55:21;15.40;57.80
67870;DHT22;54673;52.262;6.830;2023-01-13T14:57:48;15.40;57.90
67870;DHT22;54673;52.262;6.830;2023-01-13T15:02:46;15.40;58.80
67870;DHT22;54673;52.262;6.830;2023-01-13T15:10:31;15.40;57.90
67870;DHT22;54673;52.262;6.830;2023-01-13T15:13:00;15.30;57.90
67870;DHT22;54673;52.262;6.830;2023-01-13T15:15:32;15.30;57.90
67870;DHT22;54673;52.262;6.830;2023-01-13T15:17:59;15.30;57.90
67870;DHT22;54673;52.262;6.830;2023-01-13T15:20:25;15.30;57.80
67870;DHT22;54673;52.262;6.830;2023-01-13T15:22:53;15.30;57.90
67870;DHT22;54673;52.262;6.830;2023-01-13T15:25:20;15.30;57.90
67870;DHT22;54673;52.262;6.830;2023-01-13T15:27:47;15.30;57.90
67870;DHT22;54673;52.262;6.830;2023-01-13T15:30:21;15.30;57.80
67870;DHT22;54673;52.262;6.830;2023-01-13T15:32:53;15.30;57.90
67870;DHT22;54673;52.262;6.830;2023-01-13T15:35:24;15.30;57.90
67870;DHT22;54673;52.262;6.830;2023-01-13T15:37:50;15.30;57.90
67870;DHT22;54673;52.262;6.830;2023-01-13T15:42:43;15.30;58.00
67870;DHT22;54673;52.262;6.830;2023-01-13T15:45:27;14.70;57.60
67870;DHT22;54673;52.262;6.830;2023-01-13T15:48:12;15.30;58.30
67870;DHT22;54673;52.262;6.830;2023-01-13T15:50:38;15.30;58.60
67870;DHT22;54673;52.262;6.830;2023-01-13T15:53:04;15.40;59.00
67870;DHT22;54673;52.262;6.830;2023-01-13T15:55:32;15.50;59.00
67870;DHT22;54673;52.262;6.830;2023-01-13T15:57:59;15.50;59.30
67870;DHT22;54673;52.262;6.830;2023-01-13T16:00:26;15.60;59.20
67870;DHT22;54673;52.262;6.830;2023-01-13T16:02:52;15.70;59.20
67870;DHT22;54673;52.262;6.830;2023-01-13T16:05:18;15.70;59.00
67870;DHT22;54673;52.262;6.830;2023-01-13T16:07:43;15.80;59.00
67870;DHT22;54673;52.262;6.830;2023-01-13T16:10:18;15.90;59.10
67870;DHT22;54673;52.262;6.830;2023-01-13T16:12:43;16.10;59.00
67870;DHT22;54673;52.262;6.830;2023-01-13T16:15:12;16.00;58.80
67870;DHT22;54673;52.262;6.830;2023-01-13T16:17:38;16.10;58.70
67870;DHT22;54673;52.262;6.830;2023-01-13T16:20:05;16.10;58.50
67870;DHT22;54673;52.262;6.830;2023-01-13T16:22:31;16.20;58.50
67870;DHT22;54673;52.262;6.830;2023-01-13T16:24:57;16.50;58.40
67870;DHT22;54673;52.262;6.830;2023-01-13T16:27:24;16.30;58.20
67870;DHT22;54673;52.262;6.830;2023-01-13T16:29:50;16.40;58.00
67870;DHT22;54673;52.262;6.830;2023-01-13T16:32:17;16.40;57.90
67870;DHT22;54673;52.262;6.830;2023-01-13T16:34:44;16.50;57.80
67870;DHT22;54673;52.262;6.830;2023-01-13T16:37:21;16.60;57.70
67870;DHT22;54673;52.262;6.830;2023-01-13T16:39:47;16.70;57.60
67870;DHT22;54673;52.262;6.830;2023-01-13T16:42:12;16.70;57.40
67870;DHT22;54673;52.262;6.830;2023-01-13T16:44:38;16.70;57.30
67870;DHT22;54673;52.262;6.830;2023-01-13T16:47:05;16.80;57.20
67870;DHT22;54673;52.262;6.830;2023-01-13T16:49:30;16.80;57.10
67870;DHT22;54673;52.262;6.830;2023-01-13T16:51:57;16.90;57.10
67870;DHT22;54673;52.262;6.830;2023-01-13T16:54:22;16.90;57.10
67870;DHT22;54673;52.262;6.830;2023-01-13T16:56:48;17.00;57.00
67870;DHT22;54673;52.262;6.830;2023-01-13T16:59:13;17.00;57.00
67870;DHT22;54673;52.262;6.830;2023-01-13T17:01:41;17.10;56.90
67870;DHT22;54673;52.262;6.830;2023-01-13T17:04:16;17.10;56.90
67870;DHT22;54673;52.262;6.830;2023-01-13T17:06:49;17.20;56.80
67870;DHT22;54673;52.262;6.830;2023-01-13T17:09:19;17.20;56.80
67870;DHT22;54673;52.262;6.830;2023-01-13T17:11:46;17.20;56.60
67870;DHT22;54673;52.262;6.830;2023-01-13T17:14:11;17.30;56.60
67870;DHT22;54673;52.262;6.830;2023-01-13T17:16:38;17.30;57.50
67870;DHT22;54673;52.262;6.830;2023-01-13T17:19:04;17.30;56.40
67870;DHT22;54673;52.262;6.830;2023-01-13T17:21:30;17.30;56.20
67870;DHT22;54673;52.262;6.830;2023-01-13T17:23:55;17.30;55.90
67870;DHT22;54673;52.262;6.830;2023-01-13T17:26:31;17.20;55.80
67870;DHT22;54673;52.262;6.830;2023-01-13T17:28:59;17.20;55.70
67870;DHT22;54673;52.262;6.830;2023-01-13T17:31:25;17.10;55.60
67870;DHT22;54673;52.262;6.830;2023-01-13T17:33:51;17.00;55.50
67870;DHT22;54673;52.262;6.830;2023-01-13T17:36:16;17.00;55.40
67870;DHT22;54673;52.262;6.830;2023-01-13T17:38:42;16.90;55.40
67870;DHT22;54673;52.262;6.830;2023-01-13T17:41:07;16.90;55.50
67870;DHT22;54673;52.262;6.830;2023-01-13T17:43:33;16.80;55.60
67870;DHT22;54673;52.262;6.830;2023-01-13T17:45:59;16.80;55.60
67870;DHT22;54673;52.262;6.830;2023-01-13T17:48:25;16.70;55.80
67870;DHT22;54673;52.262;6.830;2023-01-13T17:50:51;16.60;55.70
67870;DHT22;54673;52.262;6.830;2023-01-13T17:53:18;16.60;55.80